sensor_id;sensor_type;location;lat;lon;timestamp;P1;durP1;ratioP1;P2;durP2;ratioP2
76355;SDS011;65184;50.952;4.366;2023-04-25T12:38:54;19.50;;;4.90;;
76355;SDS011;65184;50.952;4.366;2023-04-25T12:39:05;14.65;;;5.35;;
76355;SDS011;65184;50.952;4.366;2023-04-25T12:39:18;11.77;;;5.47;;
76355;SDS011;65184;50.952;4.366;2023-04-25T12:39:33;10.05;;;5.75;;
76355;SDS011;65184;50.952;4.366;2023-04-25T12:39:44;10.95;;;6.00;;
76355;SDS011;65184;50.952;4.366;2023-04-25T12:39:55;10.57;;;6.43;;
76355;SDS011;65184;50.952;4.366;2023-04-25T12:40:06;10.20;;;6.35;;
76355;SDS011;65184;50.952;4.366;2023-04-25T12:40:17;10.00;;;6.25;;
76355;SDS011;65184;50.952;4.366;2023-04-25T12:40:28;11.25;;;6.55;;
76355;SDS011;65184;50.952;4.366;2023-04-25T12:40:39;11.57;;;6.68;;
76355;SDS011;65184;50.952;4.366;2023-04-25T12:40:50;10.98;;;6.60;;
76355;SDS011;65184;50.952;4.366;2023-04-25T12:41:02;9.80;;;6.07;;
76355;SDS011;65184;50.952;4.366;2023-04-25T12:41:13;9.02;;;5.78;;
76355;SDS011;65184;50.952;4.366;2023-04-25T12:41:24;9.80;;;6.07;;
76355;SDS011;65184;50.952;4.366;2023-04-25T12:41:35;10.80;;;6.47;;
76355;SDS011;65184;50.952;4.366;2023-04-25T12:41:46;11.05;;;6.30;;
76355;SDS011;65184;50.952;4.366;2023-04-25T12:41:57;10.50;;;5.80;;
76355;SDS011;65184;50.952;4.366;2023-04-25T12:42:09;10.43;;;5.72;;
76355;SDS011;65184;50.952;4.366;2023-04-25T12:42:23;10.25;;;5.82;;
76355;SDS011;65184;50.952;4.366;2023-04-25T12:42:34;11.07;;;6.18;;
76355;SDS011;65184;50.952;4.366;2023-04-25T12:42:45;11.38;;;6.25;;
76355;SDS011;65184;50.952;4.366;2023-04-25T12:42:56;12.30;;;6.40;;
76355;SDS011;65184;50.952;4.366;2023-04-25T12:43:07;12.05;;;6.30;;
76355;SDS011;65184;50.952;4.366;2023-04-25T12:43:18;11.30;;;6.28;;
76355;SDS011;65184;50.952;4.366;2023-04-25T12:43:30;10.47;;;5.90;;
76355;SDS011;65184;50.952;4.366;2023-04-25T12:43:40;10.20;;;5.95;;
76355;SDS011;65184;50.952;4.366;2023-04-25T12:43:52;9.85;;;6.07;;
76355;SDS011;65184;50.952;4.366;2023-04-25T12:44:03;9.40;;;6.30;;
76355;SDS011;65184;50.952;4.366;2023-04-25T12:44:14;9.60;;;6.18;;
76355;SDS011;65184;50.952;4.366;2023-04-25T12:44:25;10.32;;;6.32;;
76355;SDS011;65184;50.952;4.366;2023-04-25T12:44:36;10.73;;;6.35;;
76355;SDS011;65184;50.952;4.366;2023-04-25T12:44:48;10.82;;;6.53;;
76355;SDS011;65184;50.952;4.366;2023-04-25T12:44:59;10.95;;;6.50;;
76355;SDS011;65184;50.952;4.366;2023-04-25T12:45:10;10.07;;;6.40;;
76355;SDS011;65184;50.952;4.366;2023-04-25T12:45:21;9.47;;;6.33;;
76355;SDS011;65184;50.952;4.366;2023-04-25T12:45:32;8.70;;;6.13;;
76355;SDS011;65184;50.952;4.366;2023-04-25T12:45:43;9.32;;;6.10;;
76355;SDS011;65184;50.952;4.366;2023-04-25T12:46:12;10.23;;;6.10;;
76355;SDS011;65184;50.952;4.366;2023-04-25T12:46:23;10.55;;;6.05;;
76355;SDS011;65184;50.952;4.366;2023-04-25T12:46:34;10.65;;;6.22;;
76355;SDS011;65184;50.952;4.366;2023-04-25T12:46:45;10.15;;;6.10;;
76355;SDS011;65184;50.952;4.366;2023-04-25T12:46:56;9.90;;;6.20;;
76355;SDS011;65184;50.952;4.366;2023-04-25T12:47:07;9.85;;;6.18;;
76355;SDS011;65184;50.952;4.366;2023-04-25T12:47:18;9.63;;;6.13;;
76355;SDS011;65184;50.952;4.366;2023-04-25T12:47:29;9.63;;;6.18;;
76355;SDS011;65184;50.952;4.366;2023-04-25T12:47:40;10.13;;;6.20;;
76355;SDS011;65184;50.952;4.366;2023-04-25T12:47:51;10.43;;;6.25;;
76355;SDS011;65184;50.952;4.366;2023-04-25T12:48:02;9.52;;;6.07;;
76355;SDS011;65184;50.952;4.366;2023-04-25T12:48:13;8.63;;;5.85;;
76355;SDS011;65184;50.952;4.366;2023-04-25T12:48:24;8.13;;;5.63;;
76355;SDS011;65184;50.952;4.366;2023-04-25T12:48:35;8.82;;;5.80;;
76355;SDS011;65184;50.952;4.366;2023-04-25T12:48:46;8.77;;;5.82;;
76355;SDS011;65184;50.952;4.366;2023-04-25T12:48:57;9.25;;;5.88;;
76355;SDS011;65184;50.952;4.366;2023-04-25T12:49:08;8.90;;;5.72;;
76355;SDS011;65184;50.952;4.366;2023-04-25T12:49:19;9.30;;;6.03;;
76355;SDS011;65184;50.952;4.366;2023-04-25T12:49:30;9.32;;;6.18;;
76355;SDS011;65184;50.952;4.366;2023-04-25T12:49:42;9.80;;;6.00;;
76355;SDS011;65184;50.952;4.366;2023-04-25T12:49:53;9.52;;;5.82;;
76355;SDS011;65184;50.952;4.366;2023-04-25T12:50:04;9.75;;;5.93;;
76355;SDS011;65184;50.952;4.366;2023-04-25T12:50:15;9.88;;;5.90;;
76355;SDS011;65184;50.952;4.366;2023-04-25T12:50:26;10.40;;;6.00;;
76355;SDS011;65184;50.952;4.366;2023-04-25T12:50:37;10.98;;;6.10;;
76355;SDS011;65184;50.952;4.366;2023-04-25T12:50:48;9.88;;;6.10;;
76355;SDS011;65184;50.952;4.366;2023-04-25T12:51:00;9.40;;;5.93;;
76355;SDS011;65184;50.952;4.366;2023-04-25T12:51:11;9.27;;;6.03;;
76355;SDS011;65184;50.952;4.366;2023-04-25T12:51:22;10.43;;;6.07;;
76355;SDS011;65184;50.952;4.366;2023-04-25T12:51:35;10.15;;;5.93;;
76355;SDS011;65184;50.952;4.366;2023-04-25T12:51:46;9.25;;;5.75;;
76355;SDS011;65184;50.952;4.366;2023-04-25T12:51:58;8.93;;;5.88;;
76355;SDS011;65184;50.952;4.366;2023-04-25T12:52:09;9.20;;;5.90;;
76355;SDS011;65184;50.952;4.366;2023-04-25T12:52:20;9.27;;;5.82;;
76355;SDS011;65184;50.952;4.366;2023-04-25T12:52:31;9.23;;;5.75;;
76355;SDS011;65184;50.952;4.366;2023-04-25T12:52:42;9.38;;;6.00;;
76355;SDS011;65184;50.952;4.366;2023-04-25T12:52:53;9.70;;;6.18;;
76355;SDS011;65184;50.952;4.366;2023-04-25T12:53:04;9.63;;;6.07;;
76355;SDS011;65184;50.952;4.366;2023-04-25T12:53:18;9.27;;;5.78;;
76355;SDS011;65184;50.952;4.366;2023-04-25T12:53:30;9.98;;;5.95;;
76355;SDS011;65184;50.952;4.366;2023-04-25T12:53:41;10.10;;;6.18;;
76355;SDS011;65184;50.952;4.366;2023-04-25T12:53:53;10.07;;;6.30;;
76355;SDS011;65184;50.952;4.366;2023-04-25T12:54:04;10.40;;;6.40;;
76355;SDS011;65184;50.952;4.366;2023-04-25T12:54:16;10.55;;;6.28;;
76355;SDS011;65184;50.952;4.366;2023-04-25T12:54:27;9.45;;;5.90;;
76355;SDS011;65184;50.952;4.366;2023-04-25T12:54:38;9.50;;;5.82;;
76355;SDS011;65184;50.952;4.366;2023-04-25T12:54:49;9.55;;;5.70;;
76355;SDS011;65184;50.952;4.366;2023-04-25T12:55:00;9.82;;;5.68;;
76355;SDS011;65184;50.952;4.366;2023-04-25T12:55:11;10.02;;;5.95;;
76355;SDS011;65184;50.952;4.366;2023-04-25T12:55:22;10.70;;;6.20;;
76355;SDS011;65184;50.952;4.366;2023-04-25T12:55:33;10.88;;;6.20;;
76355;SDS011;65184;50.952;4.366;2023-04-25T12:55:44;10.45;;;5.93;;
76355;SDS011;65184;50.952;4.366;2023-04-25T12:55:58;9.77;;;5.93;;
76355;SDS011;65184;50.952;4.366;2023-04-25T12:56:09;9.63;;;5.93;;
76355;SDS011;65184;50.952;4.366;2023-04-25T12:56:21;10.05;;;5.70;;
76355;SDS011;65184;50.952;4.366;2023-04-25T12:56:32;11.07;;;5.80;;
76355;SDS011;65184;50.952;4.366;2023-04-25T12:56:43;11.55;;;5.90;;
76355;SDS011;65184;50.952;4.366;2023-04-25T12:56:54;10.10;;;5.70;;
76355;SDS011;65184;50.952;4.366;2023-04-25T12:57:05;9.13;;;5.70;;
76355;SDS011;65184;50.952;4.366;2023-04-25T12:57:16;8.90;;;5.65;;
76355;SDS011;65184;50.952;4.366;2023-04-25T12:57:27;9.15;;;5.70;;
76355;SDS011;65184;50.952;4.366;2023-04-25T12:57:38;8.45;;;5.57;;
76355;SDS011;65184;50.952;4.366;2023-04-25T12:57:49;8.52;;;5.72;;
76355;SDS011;65184;50.952;4.366;2023-04-25T12:58:00;9.30;;;5.90;;
76355;SDS011;65184;50.952;4.366;2023-04-25T12:58:11;9.45;;;5.85;;
76355;SDS011;65184;50.952;4.366;2023-04-25T12:58:23;8.90;;;5.80;;
76355;SDS011;65184;50.952;4.366;2023-04-25T12:58:35;9.20;;;5.63;;
76355;SDS011;65184;50.952;4.366;2023-04-25T12:58:46;9.15;;;5.90;;
76355;SDS011;65184;50.952;4.366;2023-04-25T12:58:58;8.60;;;5.68;;
76355;SDS011;65184;50.952;4.366;2023-04-25T12:59:09;7.82;;;5.50;;
76355;SDS011;65184;50.952;4.366;2023-04-25T12:59:21;8.07;;;5.30;;
76355;SDS011;65184;50.952;4.366;2023-04-25T12:59:32;8.38;;;5.50;;
76355;SDS011;65184;50.952;4.366;2023-04-25T12:59:43;9.52;;;5.78;;
76355;SDS011;65184;50.952;4.366;2023-04-25T12:59:54;9.40;;;5.60;;
76355;SDS011;65184;50.952;4.366;2023-04-25T13:00:05;8.93;;;5.38;;
76355;SDS011;65184;50.952;4.366;2023-04-25T13:00:19;8.25;;;5.60;;
76355;SDS011;65184;50.952;4.366;2023-04-25T13:00:30;8.30;;;5.60;;
76355;SDS011;65184;50.952;4.366;2023-04-25T13:00:42;8.18;;;5.57;;
76355;SDS011;65184;50.952;4.366;2023-04-25T13:00:53;8.75;;;5.45;;
76355;SDS011;65184;50.952;4.366;2023-04-25T13:01:04;9.63;;;5.55;;
76355;SDS011;65184;50.952;4.366;2023-04-25T13:01:15;9.70;;;5.47;;
76355;SDS011;65184;50.952;4.366;2023-04-25T13:01:26;9.48;;;5.53;;
76355;SDS011;65184;50.952;4.366;2023-04-25T13:01:38;9.45;;;5.82;;
76355;SDS011;65184;50.952;4.366;2023-04-25T13:01:49;9.23;;;5.80;;
76355;SDS011;65184;50.952;4.366;2023-04-25T13:02:00;8.75;;;5.78;;
76355;SDS011;65184;50.952;4.366;2023-04-25T13:02:11;8.63;;;5.57;;
76355;SDS011;65184;50.952;4.366;2023-04-25T13:02:22;8.43;;;5.40;;
76355;SDS011;65184;50.952;4.366;2023-04-25T13:02:33;8.35;;;5.40;;
76355;SDS011;65184;50.952;4.366;2023-04-25T13:02:44;8.90;;;5.55;;
76355;SDS011;65184;50.952;4.366;2023-04-25T13:02:55;9.80;;;5.72;;
76355;SDS011;65184;50.952;4.366;2023-04-25T13:03:06;10.07;;;5.85;;
76355;SDS011;65184;50.952;4.366;2023-04-25T13:03:17;9.40;;;5.68;;
76355;SDS011;65184;50.952;4.366;2023-04-25T13:03:29;9.02;;;5.47;;
76355;SDS011;65184;50.952;4.366;2023-04-25T13:03:40;8.70;;;5.30;;
76355;SDS011;65184;50.952;4.366;2023-04-25T13:03:51;9.13;;;5.47;;
76355;SDS011;65184;50.952;4.366;2023-04-25T13:04:03;8.98;;;5.32;;
76355;SDS011;65184;50.952;4.366;2023-04-25T13:04:14;9.45;;;5.63;;
76355;SDS011;65184;50.952;4.366;2023-04-25T13:04:25;9.35;;;5.95;;
76355;SDS011;65184;50.952;4.366;2023-04-25T13:04:36;8.77;;;5.97;;
76355;SDS011;65184;50.952;4.366;2023-04-25T13:04:47;8.00;;;5.57;;
76355;SDS011;65184;50.952;4.366;2023-04-25T13:04:58;8.43;;;5.20;;
76355;SDS011;65184;50.952;4.366;2023-04-25T13:05:09;9.07;;;5.20;;
76355;SDS011;65184;50.952;4.366;2023-04-25T13:05:20;10.18;;;5.57;;
76355;SDS011;65184;50.952;4.366;2023-04-25T13:05:31;9.75;;;5.70;;
76355;SDS011;65184;50.952;4.366;2023-04-25T13:05:42;9.48;;;5.80;;
76355;SDS011;65184;50.952;4.366;2023-04-25T13:05:53;9.13;;;5.68;;
76355;SDS011;65184;50.952;4.366;2023-04-25T13:06:04;8.80;;;5.50;;
76355;SDS011;65184;50.952;4.366;2023-04-25T13:06:16;8.88;;;5.45;;
76355;SDS011;65184;50.952;4.366;2023-04-25T13:06:28;9.27;;;5.68;;
76355;SDS011;65184;50.952;4.366;2023-04-25T13:06:40;10.48;;;5.85;;
76355;SDS011;65184;50.952;4.366;2023-04-25T13:06:52;10.35;;;5.78;;
76355;SDS011;65184;50.952;4.366;2023-04-25T13:07:03;9.63;;;5.63;;
76355;SDS011;65184;50.952;4.366;2023-04-25T13:07:14;9.77;;;5.70;;
76355;SDS011;65184;50.952;4.366;2023-04-25T13:07:25;9.15;;;5.47;;
76355;SDS011;65184;50.952;4.366;2023-04-25T13:07:36;8.98;;;5.45;;
76355;SDS011;65184;50.952;4.366;2023-04-25T13:07:46;9.27;;;5.50;;
76355;SDS011;65184;50.952;4.366;2023-04-25T13:07:57;9.43;;;5.80;;
76355;SDS011;65184;50.952;4.366;2023-04-25T13:08:09;9.07;;;5.60;;
76355;SDS011;65184;50.952;4.366;2023-04-25T13:08:20;8.80;;;5.50;;
76355;SDS011;65184;50.952;4.366;2023-04-25T13:08:32;8.23;;;5.47;;
76355;SDS011;65184;50.952;4.366;2023-04-25T13:08:43;8.55;;;5.47;;
76355;SDS011;65184;50.952;4.366;2023-04-25T13:08:53;8.95;;;5.47;;
76355;SDS011;65184;50.952;4.366;2023-04-25T13:09:04;9.70;;;5.47;;
76355;SDS011;65184;50.952;4.366;2023-04-25T13:09:17;9.07;;;5.45;;
76355;SDS011;65184;50.952;4.366;2023-04-25T13:09:28;8.55;;;5.40;;
76355;SDS011;65184;50.952;4.366;2023-04-25T13:09:39;7.97;;;5.47;;
76355;SDS011;65184;50.952;4.366;2023-04-25T13:09:50;8.82;;;5.57;;
76355;SDS011;65184;50.952;4.366;2023-04-25T13:10:00;9.88;;;5.88;;
76355;SDS011;65184;50.952;4.366;2023-04-25T13:10:13;11.02;;;6.00;;
76355;SDS011;65184;50.952;4.366;2023-04-25T13:10:24;9.98;;;5.80;;
76355;SDS011;65184;50.952;4.366;2023-04-25T13:10:35;9.48;;;5.65;;
76355;SDS011;65184;50.952;4.366;2023-04-25T13:10:47;9.20;;;5.43;;
76355;SDS011;65184;50.952;4.366;2023-04-25T13:10:58;9.57;;;5.50;;
76355;SDS011;65184;50.952;4.366;2023-04-25T13:11:10;9.45;;;5.70;;
76355;SDS011;65184;50.952;4.366;2023-04-25T13:11:22;9.10;;;5.45;;
76355;SDS011;65184;50.952;4.366;2023-04-25T13:11:33;8.82;;;5.38;;
76355;SDS011;65184;50.952;4.366;2023-04-25T13:11:44;8.40;;;5.20;;
76355;SDS011;65184;50.952;4.366;2023-04-25T13:11:55;8.30;;;5.35;;
76355;SDS011;65184;50.952;4.366;2023-04-25T13:12:06;8.88;;;5.53;;
76355;SDS011;65184;50.952;4.366;2023-04-25T13:12:18;9.75;;;5.70;;
76355;SDS011;65184;50.952;4.366;2023-04-25T13:12:28;9.85;;;5.40;;
76355;SDS011;65184;50.952;4.366;2023-04-25T13:12:39;9.30;;;5.30;;
76355;SDS011;65184;50.952;4.366;2023-04-25T13:12:50;9.15;;;5.32;;
76355;SDS011;65184;50.952;4.366;2023-04-25T13:13:01;8.90;;;5.28;;
76355;SDS011;65184;50.952;4.366;2023-04-25T13:13:13;9.23;;;5.25;;
76355;SDS011;65184;50.952;4.366;2023-04-25T13:13:24;8.75;;;5.15;;
76355;SDS011;65184;50.952;4.366;2023-04-25T13:13:35;8.95;;;5.22;;
76355;SDS011;65184;50.952;4.366;2023-04-25T13:13:47;9.05;;;5.25;;
76355;SDS011;65184;50.952;4.366;2023-04-25T13:13:57;9.52;;;5.32;;
76355;SDS011;65184;50.952;4.366;2023-04-25T13:14:08;8.75;;;5.18;;
76355;SDS011;65184;50.952;4.366;2023-04-25T13:14:19;8.07;;;5.03;;
76355;SDS011;65184;50.952;4.366;2023-04-25T13:14:30;8.18;;;5.15;;
76355;SDS011;65184;50.952;4.366;2023-04-25T13:14:41;8.25;;;5.15;;
76355;SDS011;65184;50.952;4.366;2023-04-25T13:14:52;7.75;;;5.05;;
76355;SDS011;65184;50.952;4.366;2023-04-25T13:15:03;7.85;;;5.00;;
76355;SDS011;65184;50.952;4.366;2023-04-25T13:15:15;8.52;;;5.40;;
76355;SDS011;65184;50.952;4.366;2023-04-25T13:15:26;9.65;;;5.60;;
76355;SDS011;65184;50.952;4.366;2023-04-25T13:15:38;10.20;;;5.70;;
76355;SDS011;65184;50.952;4.366;2023-04-25T13:15:49;9.70;;;5.45;;
76355;SDS011;65184;50.952;4.366;2023-04-25T13:16:03;9.32;;;5.63;;
76355;SDS011;65184;50.952;4.366;2023-04-25T13:16:14;9.00;;;5.63;;
76355;SDS011;65184;50.952;4.366;2023-04-25T13:16:26;8.88;;;5.55;;
76355;SDS011;65184;50.952;4.366;2023-04-25T13:16:37;8.90;;;5.65;;
76355;SDS011;65184;50.952;4.366;2023-04-25T13:16:48;8.57;;;5.40;;
76355;SDS011;65184;50.952;4.366;2023-04-25T13:16:59;8.05;;;5.18;;
76355;SDS011;65184;50.952;4.366;2023-04-25T13:17:10;7.75;;;5.07;;
76355;SDS011;65184;50.952;4.366;2023-04-25T13:17:21;8.68;;;5.38;;
76355;SDS011;65184;50.952;4.366;2023-04-25T13:17:32;8.77;;;5.55;;
76355;SDS011;65184;50.952;4.366;2023-04-25T13:17:43;9.25;;;5.60;;
76355;SDS011;65184;50.952;4.366;2023-04-25T13:17:54;9.15;;;5.53;;
76355;SDS011;65184;50.952;4.366;2023-04-25T13:18:06;9.00;;;5.40;;
76355;SDS011;65184;50.952;4.366;2023-04-25T13:18:18;8.60;;;5.25;;
76355;SDS011;65184;50.952;4.366;2023-04-25T13:18:30;8.13;;;5.30;;
76355;SDS011;65184;50.952;4.366;2023-04-25T13:18:41;8.00;;;5.30;;
76355;SDS011;65184;50.952;4.366;2023-04-25T13:18:52;7.53;;;5.20;;
76355;SDS011;65184;50.952;4.366;2023-04-25T13:19:03;8.23;;;5.45;;
76355;SDS011;65184;50.952;4.366;2023-04-25T13:19:14;8.77;;;5.50;;
76355;SDS011;65184;50.952;4.366;2023-04-25T13:19:25;9.10;;;5.75;;
76355;SDS011;65184;50.952;4.366;2023-04-25T13:19:36;8.68;;;5.72;;
76355;SDS011;65184;50.952;4.366;2023-04-25T13:19:49;8.85;;;5.82;;
76355;SDS011;65184;50.952;4.366;2023-04-25T13:20:00;8.98;;;5.70;;
76355;SDS011;65184;50.952;4.366;2023-04-25T13:20:11;8.50;;;5.45;;
76355;SDS011;65184;50.952;4.366;2023-04-25T13:20:22;8.60;;;5.15;;
76355;SDS011;65184;50.952;4.366;2023-04-25T13:20:33;9.13;;;5.25;;
76355;SDS011;65184;50.952;4.366;2023-04-25T13:20:44;9.57;;;5.63;;
76355;SDS011;65184;50.952;4.366;2023-04-25T13:20:57;9.77;;;6.15;;
76355;SDS011;65184;50.952;4.366;2023-04-25T13:21:09;9.48;;;6.07;;
76355;SDS011;65184;50.952;4.366;2023-04-25T13:21:21;8.43;;;5.75;;
76355;SDS011;65184;50.952;4.366;2023-04-25T13:21:32;8.55;;;5.75;;
76355;SDS011;65184;50.952;4.366;2023-04-25T13:21:43;8.85;;;5.72;;
76355;SDS011;65184;50.952;4.366;2023-04-25T13:21:54;9.07;;;5.60;;
76355;SDS011;65184;50.952;4.366;2023-04-25T13:22:04;8.48;;;5.20;;
76355;SDS011;65184;50.952;4.366;2023-04-25T13:22:15;8.15;;;5.20;;
76355;SDS011;65184;50.952;4.366;2023-04-25T13:22:27;8.15;;;5.10;;
76355;SDS011;65184;50.952;4.366;2023-04-25T13:22:38;8.45;;;5.28;;
76355;SDS011;65184;50.952;4.366;2023-04-25T13:22:49;8.52;;;5.40;;
76355;SDS011;65184;50.952;4.366;2023-04-25T13:23:00;8.73;;;5.47;;
76355;SDS011;65184;50.952;4.366;2023-04-25T13:23:11;8.23;;;5.38;;
76355;SDS011;65184;50.952;4.366;2023-04-25T13:23:23;7.75;;;5.15;;
76355;SDS011;65184;50.952;4.366;2023-04-25T13:23:35;7.82;;;4.97;;
76355;SDS011;65184;50.952;4.366;2023-04-25T13:23:45;8.23;;;5.10;;
76355;SDS011;65184;50.952;4.366;2023-04-25T13:23:57;8.95;;;5.38;;
76355;SDS011;65184;50.952;4.366;2023-04-25T13:24:08;9.07;;;5.30;;
76355;SDS011;65184;50.952;4.366;2023-04-25T13:24:19;8.88;;;5.10;;
76355;SDS011;65184;50.952;4.366;2023-04-25T13:24:30;8.90;;;4.95;;
76355;SDS011;65184;50.952;4.366;2023-04-25T13:24:41;8.60;;;4.93;;
76355;SDS011;65184;50.952;4.366;2023-04-25T13:24:52;8.38;;;5.10;;
76355;SDS011;65184;50.952;4.366;2023-04-25T13:25:03;8.52;;;5.30;;
76355;SDS011;65184;50.952;4.366;2023-04-25T13:25:14;9.80;;;5.32;;
76355;SDS011;65184;50.952;4.366;2023-04-25T13:25:26;9.05;;;5.10;;
76355;SDS011;65184;50.952;4.366;2023-04-25T13:25:37;8.48;;;5.15;;
76355;SDS011;65184;50.952;4.366;2023-04-25T13:25:48;8.50;;;5.20;;
76355;SDS011;65184;50.952;4.366;2023-04-25T13:25:59;8.48;;;5.30;;
76355;SDS011;65184;50.952;4.366;2023-04-25T13:26:11;8.23;;;5.50;;
76355;SDS011;65184;50.952;4.366;2023-04-25T13:26:22;8.10;;;5.55;;
76355;SDS011;65184;50.952;4.366;2023-04-25T13:26:33;8.77;;;5.53;;
76355;SDS011;65184;50.952;4.366;2023-04-25T13:26:44;8.48;;;5.22;;
76355;SDS011;65184;50.952;4.366;2023-04-25T13:26:55;8.20;;;5.25;;
76355;SDS011;65184;50.952;4.366;2023-04-25T13:27:06;8.40;;;5.22;;
76355;SDS011;65184;50.952;4.366;2023-04-25T13:27:17;8.30;;;5.10;;
76355;SDS011;65184;50.952;4.366;2023-04-25T13:27:29;8.38;;;5.00;;
76355;SDS011;65184;50.952;4.366;2023-04-25T13:27:40;9.02;;;5.20;;
76355;SDS011;65184;50.952;4.366;2023-04-25T13:27:51;9.00;;;5.45;;
76355;SDS011;65184;50.952;4.366;2023-04-25T13:28:02;7.95;;;5.30;;
76355;SDS011;65184;50.952;4.366;2023-04-25T13:28:14;7.88;;;5.15;;
76355;SDS011;65184;50.952;4.366;2023-04-25T13:28:25;7.72;;;5.05;;
76355;SDS011;65184;50.952;4.366;2023-04-25T13:28:36;7.55;;;5.03;;
76355;SDS011;65184;50.952;4.366;2023-04-25T13:28:47;7.40;;;5.00;;
76355;SDS011;65184;50.952;4.366;2023-04-25T13:28:58;7.85;;;5.18;;
76355;SDS011;65184;50.952;4.366;2023-04-25T13:29:10;8.52;;;5.15;;
76355;SDS011;65184;50.952;4.366;2023-04-25T13:29:21;8.70;;;5.22;;
76355;SDS011;65184;50.952;4.366;2023-04-25T13:29:32;8.70;;;5.18;;
76355;SDS011;65184;50.952;4.366;2023-04-25T13:29:45;8.55;;;5.40;;
76355;SDS011;65184;50.952;4.366;2023-04-25T13:29:56;7.88;;;5.00;;
76355;SDS011;65184;50.952;4.366;2023-04-25T13:30:07;7.50;;;5.00;;
76355;SDS011;65184;50.952;4.366;2023-04-25T13:30:19;7.25;;;4.97;;
76355;SDS011;65184;50.952;4.366;2023-04-25T13:30:30;7.93;;;5.10;;
76355;SDS011;65184;50.952;4.366;2023-04-25T13:30:41;7.95;;;5.03;;
76355;SDS011;65184;50.952;4.366;2023-04-25T13:30:52;8.27;;;5.00;;
76355;SDS011;65184;50.952;4.366;2023-04-25T13:31:03;7.25;;;4.57;;
76355;SDS011;65184;50.952;4.366;2023-04-25T13:31:15;6.75;;;4.15;;
76355;SDS011;65184;50.952;4.366;2023-04-25T13:31:26;7.20;;;4.22;;
76355;SDS011;65184;50.952;4.366;2023-04-25T13:31:37;7.70;;;4.50;;
76355;SDS011;65184;50.952;4.366;2023-04-25T13:31:48;7.45;;;4.75;;
76355;SDS011;65184;50.952;4.366;2023-04-25T13:31:59;7.38;;;4.60;;
76355;SDS011;65184;50.952;4.366;2023-04-25T13:32:10;7.70;;;4.80;;
76355;SDS011;65184;50.952;4.366;2023-04-25T13:32:21;7.50;;;4.70;;
76355;SDS011;65184;50.952;4.366;2023-04-25T13:32:33;7.75;;;4.70;;
76355;SDS011;65184;50.952;4.366;2023-04-25T13:32:46;7.47;;;4.70;;
76355;SDS011;65184;50.952;4.366;2023-04-25T13:32:57;6.85;;;4.70;;
76355;SDS011;65184;50.952;4.366;2023-04-25T13:33:16;6.63;;;4.63;;
76355;SDS011;65184;50.952;4.366;2023-04-25T13:33:27;6.63;;;4.47;;
76355;SDS011;65184;50.952;4.366;2023-04-25T13:33:38;6.70;;;4.77;;
76355;SDS011;65184;50.952;4.366;2023-04-25T13:33:48;6.93;;;4.80;;
76355;SDS011;65184;50.952;4.366;2023-04-25T13:33:59;7.43;;;5.07;;
76355;SDS011;65184;50.952;4.366;2023-04-25T13:34:10;7.25;;;4.90;;
76355;SDS011;65184;50.952;4.366;2023-04-25T13:34:23;7.82;;;4.93;;
76355;SDS011;65184;50.952;4.366;2023-04-25T13:34:33;7.75;;;4.70;;
76355;SDS011;65184;50.952;4.366;2023-04-25T13:34:44;7.85;;;4.65;;
76355;SDS011;65184;50.952;4.366;2023-04-25T13:34:55;7.35;;;4.47;;
76355;SDS011;65184;50.952;4.366;2023-04-25T13:35:10;7.88;;;4.63;;
76355;SDS011;65184;50.952;4.366;2023-04-25T13:35:22;8.27;;;5.07;;
76355;SDS011;65184;50.952;4.366;2023-04-25T13:35:34;7.60;;;4.88;;
76355;SDS011;65184;50.952;4.366;2023-04-25T13:35:46;7.93;;;4.57;;
76355;SDS011;65184;50.952;4.366;2023-04-25T13:36:04;7.80;;;4.60;;
76355;SDS011;65184;50.952;4.366;2023-04-25T13:36:15;8.15;;;4.95;;
76355;SDS011;65184;50.952;4.366;2023-04-25T13:36:26;8.90;;;5.05;;
76355;SDS011;65184;50.952;4.366;2023-04-25T13:36:38;9.20;;;5.28;;
76355;SDS011;65184;50.952;4.366;2023-04-25T13:36:49;8.80;;;5.30;;
76355;SDS011;65184;50.952;4.366;2023-04-25T13:37:00;8.93;;;5.40;;
76355;SDS011;65184;50.952;4.366;2023-04-25T13:37:11;9.33;;;5.43;;
76355;SDS011;65184;50.952;4.366;2023-04-25T13:37:22;9.23;;;5.53;;
76355;SDS011;65184;50.952;4.366;2023-04-25T13:37:34;8.60;;;5.35;;
76355;SDS011;65184;50.952;4.366;2023-04-25T13:37:46;8.35;;;5.10;;
76355;SDS011;65184;50.952;4.366;2023-04-25T13:37:56;8.02;;;5.00;;
76355;SDS011;65184;50.952;4.366;2023-04-25T13:38:07;8.60;;;5.30;;
76355;SDS011;65184;50.952;4.366;2023-04-25T13:38:23;8.23;;;5.25;;
76355;SDS011;65184;50.952;4.366;2023-04-25T13:38:34;7.65;;;5.30;;
76355;SDS011;65184;50.952;4.366;2023-04-25T13:38:45;8.52;;;5.78;;
76355;SDS011;65184;50.952;4.366;2023-04-25T13:38:58;8.55;;;5.90;;
76355;SDS011;65184;50.952;4.366;2023-04-25T13:39:09;8.35;;;5.65;;
76355;SDS011;65184;50.952;4.366;2023-04-25T13:39:20;8.38;;;5.25;;
76355;SDS011;65184;50.952;4.366;2023-04-25T13:39:31;8.48;;;5.07;;
76355;SDS011;65184;50.952;4.366;2023-04-25T13:39:41;7.93;;;4.97;;
76355;SDS011;65184;50.952;4.366;2023-04-25T13:39:52;7.32;;;4.80;;
76355;SDS011;65184;50.952;4.366;2023-04-25T13:40:09;7.63;;;4.85;;
76355;SDS011;65184;50.952;4.366;2023-04-25T13:40:21;7.55;;;4.75;;
76355;SDS011;65184;50.952;4.366;2023-04-25T13:40:32;7.35;;;4.55;;
76355;SDS011;65184;50.952;4.366;2023-04-25T13:40:43;7.07;;;4.22;;
76355;SDS011;65184;50.952;4.366;2023-04-25T13:40:54;8.23;;;4.13;;
76355;SDS011;65184;50.952;4.366;2023-04-25T13:41:05;8.35;;;4.10;;
76355;SDS011;65184;50.952;4.366;2023-04-25T13:41:17;8.02;;;4.00;;
76355;SDS011;65184;50.952;4.366;2023-04-25T13:41:29;7.57;;;3.90;;
76355;SDS011;65184;50.952;4.366;2023-04-25T13:41:40;7.15;;;3.60;;
76355;SDS011;65184;50.952;4.366;2023-04-25T13:41:51;6.60;;;3.47;;
76355;SDS011;65184;50.952;4.366;2023-04-25T13:42:02;6.50;;;3.50;;
76355;SDS011;65184;50.952;4.366;2023-04-25T13:42:13;7.07;;;3.53;;
76355;SDS011;65184;50.952;4.366;2023-04-25T13:42:25;7.93;;;3.60;;
76355;SDS011;65184;50.952;4.366;2023-04-25T13:42:36;7.22;;;3.70;;
76355;SDS011;65184;50.952;4.366;2023-04-25T13:42:48;6.93;;;3.67;;
76355;SDS011;65184;50.952;4.366;2023-04-25T13:42:59;6.90;;;3.58;;
76355;SDS011;65184;50.952;4.366;2023-04-25T13:43:10;6.45;;;3.40;;
76355;SDS011;65184;50.952;4.366;2023-04-25T13:43:21;5.90;;;3.33;;
76355;SDS011;65184;50.952;4.366;2023-04-25T13:43:35;5.95;;;3.15;;
76355;SDS011;65184;50.952;4.366;2023-04-25T13:43:46;6.03;;;3.17;;
76355;SDS011;65184;50.952;4.366;2023-04-25T13:43:58;6.25;;;3.22;;
76355;SDS011;65184;50.952;4.366;2023-04-25T13:44:09;6.68;;;3.20;;
76355;SDS011;65184;50.952;4.366;2023-04-25T13:44:20;7.00;;;3.47;;
76355;SDS011;65184;50.952;4.366;2023-04-25T13:44:31;6.65;;;3.38;;
76355;SDS011;65184;50.952;4.366;2023-04-25T13:44:42;7.45;;;3.53;;
76355;SDS011;65184;50.952;4.366;2023-04-25T13:44:53;7.82;;;3.53;;
76355;SDS011;65184;50.952;4.366;2023-04-25T13:45:05;7.38;;;3.53;;
76355;SDS011;65184;50.952;4.366;2023-04-25T13:45:16;6.07;;;3.33;;
76355;SDS011;65184;50.952;4.366;2023-04-25T13:45:27;5.53;;;3.20;;
76355;SDS011;65184;50.952;4.366;2023-04-25T13:45:39;7.45;;;3.35;;
76355;SDS011;65184;50.952;4.366;2023-04-25T13:45:50;7.53;;;3.30;;
76355;SDS011;65184;50.952;4.366;2023-04-25T13:46:01;7.47;;;3.25;;
76355;SDS011;65184;50.952;4.366;2023-04-25T13:46:12;6.38;;;3.10;;
76355;SDS011;65184;50.952;4.366;2023-04-25T13:46:23;6.70;;;3.00;;
76355;SDS011;65184;50.952;4.366;2023-04-25T13:46:34;6.65;;;2.95;;
76355;SDS011;65184;50.952;4.366;2023-04-25T13:46:45;5.75;;;2.80;;
76355;SDS011;65184;50.952;4.366;2023-04-25T13:46:57;5.22;;;2.67;;
76355;SDS011;65184;50.952;4.366;2023-04-25T13:47:08;6.20;;;2.70;;
76355;SDS011;65184;50.952;4.366;2023-04-25T13:47:19;6.47;;;2.70;;